Time;durP1;ratioP1;P1;durP2;ratioP2;P2;SDS_P1;SDS_P2;PMS_P1;PMS_P2;Temp;Humidity;BMP_temperature;BMP_pressure;BME280_temperature;BME280_humidity;BME280_pressure;Samples;Min_cycle;Max_cycle;Signal;HPM_P1;HPM_P2
2023/10/10 00:01:41;;;;;;;;;;;15.80;99.90;;;;;;5133335;28;19964;-46
2023/10/10 00:04:06;;;;;;;;;;;15.90;99.90;;;;;;5133492;28;20266;-45
2023/10/10 00:06:38;;;;;;;;;;;15.90;99.90;;;;;;5133429;28;20383;-45
2023/10/10 00:09:13;;;;;;;;;;;15.90;99.90;;;;;;5133381;28;19912;-45
2023/10/10 00:11:45;;;;;;;;;;;15.90;99.90;;;;;;5133507;28;20274;-46
2023/10/10 00:14:17;;;;;;;;;;;15.90;99.90;;;;;;5133326;28;19907;-45
2023/10/10 00:16:43;;;;;;;;;;;15.90;99.90;;;;;;5133272;28;19960;-46
2023/10/10 00:19:18;;;;;;;;;;;15.90;99.90;;;;;;5133172;28;19911;-45
2023/10/10 00:21:44;;;;;;;;;;;15.90;99.90;;;;;;5134842;27;19959;-46
2023/10/10 00:24:12;;;;;;;;;;;15.90;99.90;;;;;;5137069;27;19923;-46
2023/10/10 00:26:40;;;;;;;;;;;15.90;99.90;;;;;;5136892;27;19907;-45
2023/10/10 00:29:06;;;;;;;;;;;15.80;99.90;;;;;;5137090;27;20002;-46
2023/10/10 00:31:31;;;;;;;;;;;15.90;99.90;;;;;;5137158;27;19969;-45
2023/10/10 00:33:57;;;;;;;;;;;15.90;99.90;;;;;;5136781;27;19991;-45
2023/10/10 00:36:30;;;;;;;;;;;15.90;99.90;;;;;;5136632;27;20317;-45
2023/10/10 00:39:06;;;;;;;;;;;15.90;99.90;;;;;;5136756;27;19947;-45
2023/10/10 00:41:35;;;;;;;;;;;15.90;99.90;;;;;;5136948;27;19916;-46
2023/10/10 00:44:02;;;;;;;;;;;15.90;99.90;;;;;;5136662;27;19911;-45
2023/10/10 00:46:28;;;;;;;;;;;15.90;99.90;;;;;;5136558;27;20355;-46
2023/10/10 00:48:59;;;;;;;;;;;15.90;99.90;;;;;;5136499;27;19943;-46
2023/10/10 00:51:30;;;;;;;;;;;15.90;99.90;;;;;;5136550;27;19907;-46
2023/10/10 00:54:26;;;;;;;;;;;15.90;99.90;;;;;;5136435;27;19911;-45
2023/10/10 00:56:44;;;;;;;;;;;15.90;99.90;;;;;;5135599;27;19956;-47
2023/10/10 00:59:10;;;;;;;;;;;15.90;99.90;;;;;;5136381;27;19907;-45
2023/10/10 01:01:40;;;;;;;;;;;15.90;99.90;;;;;;5136308;27;19911;-46
2023/10/10 01:04:07;;;;;;;;;;;15.90;99.90;;;;;;5136200;27;19907;-45
2023/10/10 01:06:39;;;;;;;;;;;15.90;99.90;;;;;;5136170;27;19912;-46
2023/10/10 01:09:21;;;;;;;;;;;15.90;99.90;;;;;;5136166;27;19914;-48
2023/10/10 01:11:49;;;;;;;;;;;15.90;99.90;;;;;;5136049;27;19907;-43
2023/10/10 01:14:26;;;;;;;;;;;16.00;99.90;;;;;;5136088;27;19937;-47
2023/10/10 01:16:54;;;;;;;;;;;15.90;99.90;;;;;;5135894;27;19968;-47
2023/10/10 01:19:21;;;;;;;;;;;15.90;99.90;;;;;;5136040;27;19907;-47
2023/10/10 01:21:57;;;;;;;;;;;16.00;99.90;;;;;;5135871;27;19911;-46
2023/10/10 01:24:26;;;;;;;;;;;16.00;99.90;;;;;;5135993;27;19907;-46
2023/10/10 01:27:03;;;;;;;;;;;15.90;99.90;;;;;;5135780;27;19933;-47
2023/10/10 01:29:37;;;;;;;;;;;15.90;99.90;;;;;;5135869;27;19911;-46
2023/10/10 01:32:04;;;;;;;;;;;16.00;99.90;;;;;;5135586;27;19968;-47
2023/10/10 01:34:39;;;;;;;;;;;15.90;99.90;;;;;;5134882;27;19908;-46
2023/10/10 01:37:14;;;;;;;;;;;15.90;99.90;;;;;;5135282;27;19966;-46
2023/10/10 01:39:41;;;;;;;;;;;15.90;99.90;;;;;;5135412;27;19911;-46
2023/10/10 01:42:12;;;;;;;;;;;15.90;99.90;;;;;;5135465;27;19936;-46
2023/10/10 01:44:38;;;;;;;;;;;15.90;99.90;;;;;;5135433;27;20384;-45
2023/10/10 01:47:07;;;;;;;;;;;15.90;99.90;;;;;;5135349;27;19912;-47
2023/10/10 01:49:35;;;;;;;;;;;15.90;99.90;;;;;;5135386;27;19984;-47
2023/10/10 01:52:01;;;;;;;;;;;15.90;99.90;;;;;;5135150;27;19907;-46
2023/10/10 01:54:40;;;;;;;;;;;15.90;99.90;;;;;;5135266;27;20002;-45
2023/10/10 01:57:07;;;;;;;;;;;15.90;99.90;;;;;;5135177;27;19907;-45
2023/10/10 01:59:37;;;;;;;;;;;15.90;99.90;;;;;;5135022;27;19912;-47
2023/10/10 02:02:09;;;;;;;;;;;15.90;99.90;;;;;;5135229;27;19908;-47
2023/10/10 02:04:35;;;;;;;;;;;15.90;99.90;;;;;;5135015;27;19921;-45
2023/10/10 02:07:06;;;;;;;;;;;15.90;99.90;;;;;;5134926;27;20006;-46
2023/10/10 02:09:34;;;;;;;;;;;15.90;99.90;;;;;;5134941;27;19907;-45
2023/10/10 02:12:08;;;;;;;;;;;15.90;99.90;;;;;;5134825;27;19908;-45
2023/10/10 02:14:34;;;;;;;;;;;15.90;99.90;;;;;;5134785;27;20323;-51
2023/10/10 02:17:19;;;;;;;;;;;15.90;99.90;;;;;;5134736;27;19935;-51
2023/10/10 02:19:53;;;;;;;;;;;15.90;99.90;;;;;;5134663;27;19912;-49
2023/10/10 02:22:23;;;;;;;;;;;15.90;99.90;;;;;;5134756;27;19922;-48
2023/10/10 02:25:31;;;;;;;;;;;15.90;99.90;;;;;;5134584;27;19908;-47
2023/10/10 02:27:54;;;;;;;;;;;15.90;99.90;;;;;;5134207;27;19916;-46
2023/10/10 02:30:24;;;;;;;;;;;15.90;99.90;;;;;;5134595;27;20048;-49
2023/10/10 02:32:50;;;;;;;;;;;15.90;99.90;;;;;;5134494;27;19914;-45
2023/10/10 02:35:27;;;;;;;;;;;15.90;99.90;;;;;;5134295;27;19908;-45
2023/10/10 02:37:54;;;;;;;;;;;15.90;99.90;;;;;;5134401;27;19961;-47
2023/10/10 02:40:30;;;;;;;;;;;15.90;99.90;;;;;;5134353;27;19924;-46
2023/10/10 02:45:44;;;;;;;;;;;16.00;99.90;;;;;;5134432;27;20323;-47
2023/10/10 02:48:20;;;;;;;;;;;15.90;99.90;;;;;;5134197;27;19915;-46
2023/10/10 02:50:45;;;;;;;;;;;15.90;99.90;;;;;;5134215;27;19907;-45
2023/10/10 02:53:13;;;;;;;;;;;15.90;99.90;;;;;;5134223;27;20064;-46
2023/10/10 02:55:41;;;;;;;;;;;15.90;99.90;;;;;;5134126;27;19930;-46
2023/10/10 02:58:20;;;;;;;;;;;15.90;99.90;;;;;;5134186;27;19911;-46
2023/10/10 03:00:47;;;;;;;;;;;15.90;99.90;;;;;;5133837;27;20432;-44
2023/10/10 03:03:18;;;;;;;;;;;15.90;99.90;;;;;;5134104;27;19949;-45
2023/10/10 03:05:50;;;;;;;;;;;15.90;99.90;;;;;;5134023;27;19911;-46
2023/10/10 03:08:26;;;;;;;;;;;15.90;99.90;;;;;;5134108;27;19930;-48
2023/10/10 03:10:55;;;;;;;;;;;15.90;99.90;;;;;;5133922;27;20014;-47
2023/10/10 03:13:35;;;;;;;;;;;15.90;99.90;;;;;;5133858;27;19915;-47
2023/10/10 03:26:59;;;;;;;;;;;15.80;99.90;;;;;;5133786;28;19911;-47
2023/10/10 03:29:46;;;;;;;;;;;15.80;99.90;;;;;;5133842;28;19907;-48
2023/10/10 03:34:56;;;;;;;;;;;15.80;99.90;;;;;;5134065;28;19952;-47
2023/10/10 03:40:05;;;;;;;;;;;15.80;99.90;;;;;;5133548;28;20010;-47
2023/10/10 05:24:14;;;;;;;;;;;15.50;99.90;;;;;;5052486;28;19913;-48
2023/10/10 05:26:46;;;;;;;;;;;15.50;99.90;;;;;;5052266;28;19915;-49
2023/10/10 05:29:19;;;;;;;;;;;15.50;99.90;;;;;;5095050;27;19954;-49
2023/10/10 05:31:47;;;;;;;;;;;15.50;99.90;;;;;;5135763;27;19998;-49
2023/10/10 05:34:16;;;;;;;;;;;15.50;99.90;;;;;;5135749;27;19953;-48
2023/10/10 05:36:45;;;;;;;;;;;15.50;99.90;;;;;;5135339;27;20297;-47
2023/10/10 05:39:17;;;;;;;;;;;15.50;99.90;;;;;;5135629;27;20429;-45
2023/10/10 05:41:47;;;;;;;;;;;15.50;99.90;;;;;;5135491;27;19926;-48
2023/10/10 05:44:16;;;;;;;;;;;15.50;99.90;;;;;;5135508;27;19908;-47
2023/10/10 05:46:42;;;;;;;;;;;15.40;99.90;;;;;;5135498;27;19915;-47
2023/10/10 05:49:08;;;;;;;;;;;15.50;99.90;;;;;;5135347;27;19915;-46
2023/10/10 05:51:33;;;;;;;;;;;15.50;99.90;;;;;;5135295;27;20397;-47
2023/10/10 05:53:59;;;;;;;;;;;15.40;99.90;;;;;;5135372;27;20271;-47
2023/10/10 05:56:24;;;;;;;;;;;15.40;99.90;;;;;;5135261;27;19940;-47
2023/10/10 05:58:50;;;;;;;;;;;15.40;99.90;;;;;;5135184;27;19988;-46
2023/10/10 06:01:16;;;;;;;;;;;15.30;99.90;;;;;;5135152;27;20358;-49
2023/10/10 06:03:44;;;;;;;;;;;15.30;99.90;;;;;;5135089;27;19912;-48
2023/10/10 06:06:13;;;;;;;;;;;15.30;99.90;;;;;;5135241;27;19913;-45
2023/10/10 06:08:41;;;;;;;;;;;15.30;99.90;;;;;;5135022;27;19968;-48
2023/10/10 06:11:07;;;;;;;;;;;15.20;99.90;;;;;;5135068;27;19908;-52
2023/10/10 06:13:38;;;;;;;;;;;15.20;99.90;;;;;;5134914;27;20365;-50
2023/10/10 06:16:07;;;;;;;;;;;15.20;99.90;;;;;;5134874;27;19964;-51
2023/10/10 06:18:33;;;;;;;;;;;15.20;99.90;;;;;;5134466;27;19912;-49
2023/10/10 06:21:02;;;;;;;;;;;15.20;99.90;;;;;;5134518;27;19916;-48
2023/10/10 06:23:28;;;;;;;;;;;15.20;99.90;;;;;;5134674;27;19907;-49
2023/10/10 06:26:00;;;;;;;;;;;15.20;99.90;;;;;;5134610;27;19918;-48
2023/10/10 06:28:35;;;;;;;;;;;15.20;99.90;;;;;;5134723;27;19994;-48
2023/10/10 06:31:02;;;;;;;;;;;15.20;99.90;;;;;;5134666;27;19911;-48
2023/10/10 06:33:28;;;;;;;;;;;15.20;99.90;;;;;;5134433;27;20422;-50
2023/10/10 06:36:52;;;;;;;;;;;15.30;99.90;;;;;;5134158;27;19924;-48
2023/10/10 06:41:41;;;;;;;;;;;15.30;99.90;;;;;;5134445;27;19915;-48
2023/10/10 06:44:13;;;;;;;;;;;15.30;99.90;;;;;;5134295;27;20389;-49
2023/10/10 06:46:41;;;;;;;;;;;15.40;99.90;;;;;;5134363;27;19998;-49
2023/10/10 06:49:07;;;;;;;;;;;15.50;99.90;;;;;;5134324;27;20038;-48
2023/10/10 06:51:39;;;;;;;;;;;15.50;99.90;;;;;;5134281;27;20370;-50
2023/10/10 06:54:08;;;;;;;;;;;15.60;99.90;;;;;;5134197;27;20365;-48
2023/10/10 06:57:04;;;;;;;;;;;15.60;99.90;;;;;;5134089;27;19918;-52
2023/10/10 06:59:30;;;;;;;;;;;15.70;99.90;;;;;;5134099;27;19919;-48
2023/10/10 07:02:00;;;;;;;;;;;15.80;99.90;;;;;;5134010;27;19918;-48
2023/10/10 07:04:27;;;;;;;;;;;15.80;99.90;;;;;;5134042;27;19960;-47
2023/10/10 07:06:54;;;;;;;;;;;15.90;99.90;;;;;;5133899;27;19911;-47
2023/10/10 07:09:29;;;;;;;;;;;15.90;99.90;;;;;;5134099;27;19958;-49
2023/10/10 07:12:10;;;;;;;;;;;15.90;99.90;;;;;;5133903;27;19923;-50
2023/10/10 07:14:45;;;;;;;;;;;16.00;99.90;;;;;;5133811;27;20267;-47
2023/10/10 07:17:11;;;;;;;;;;;16.00;99.90;;;;;;5133816;27;19908;-47
2023/10/10 07:19:54;;;;;;;;;;;16.00;99.90;;;;;;5133761;27;19907;-48
2023/10/10 07:22:21;;;;;;;;;;;16.10;99.90;;;;;;5133876;27;19952;-50
2023/10/10 07:24:47;;;;;;;;;;;16.10;99.90;;;;;;5133709;27;19975;-48
2023/10/10 07:27:13;;;;;;;;;;;16.20;99.90;;;;;;5133739;28;20302;-48
2023/10/10 07:32:16;;;;;;;;;;;16.20;99.90;;;;;;5136335;27;20251;-48
2023/10/10 07:34:51;;;;;;;;;;;16.30;99.90;;;;;;5137960;27;19952;-49
2023/10/10 07:37:17;;;;;;;;;;;16.30;99.90;;;;;;5137741;27;20278;-48
2023/10/10 07:39:55;;;;;;;;;;;16.30;99.90;;;;;;5137739;27;20262;-47
2023/10/10 07:42:27;;;;;;;;;;;16.40;99.90;;;;;;5137859;27;20358;-47
2023/10/10 07:44:58;;;;;;;;;;;16.40;99.90;;;;;;5137773;27;19911;-49
2023/10/10 07:47:32;;;;;;;;;;;16.50;99.90;;;;;;5137811;27;19907;-47
2023/10/10 07:49:59;;;;;;;;;;;16.60;99.90;;;;;;5137756;27;19960;-47
2023/10/10 07:52:25;;;;;;;;;;;16.60;99.90;;;;;;5137726;27;20433;-48
2023/10/10 07:54:52;;;;;;;;;;;16.70;99.90;;;;;;5137620;27;19998;-50
2023/10/10 07:57:28;;;;;;;;;;;16.80;99.90;;;;;;5137698;27;19913;-49
2023/10/10 07:59:58;;;;;;;;;;;16.80;99.90;;;;;;5137496;27;19927;-50
2023/10/10 08:02:24;;;;;;;;;;;16.80;99.90;;;;;;5137614;27;19908;-48
2023/10/10 08:05:01;;;;;;;;;;;16.80;99.90;;;;;;5137333;27;20366;-47
2023/10/10 08:07:29;;;;;;;;;;;16.80;99.90;;;;;;5137440;27;20006;-50
2023/10/10 08:10:14;;;;;;;;;;;16.80;99.90;;;;;;5137307;27;19973;-47
2023/10/10 08:12:43;;;;;;;;;;;16.90;99.90;;;;;;5137359;27;19949;-50
2023/10/10 08:15:24;;;;;;;;;;;17.00;99.90;;;;;;5137282;27;19911;-49
2023/10/10 08:17:54;;;;;;;;;;;17.00;99.90;;;;;;5137183;27;19907;-49
2023/10/10 08:23:07;;;;;;;;;;;17.00;99.90;;;;;;5137150;27;19912;-46
2023/10/10 08:25:33;;;;;;;;;;;17.10;99.90;;;;;;5137063;27;19934;-47
2023/10/10 08:27:59;;;;;;;;;;;17.10;99.90;;;;;;5136984;27;19908;-47
2023/10/10 08:30:26;;;;;;;;;;;17.10;99.90;;;;;;5136906;27;20315;-47
2023/10/10 08:32:53;;;;;;;;;;;17.20;99.90;;;;;;5136864;27;19985;-50
2023/10/10 08:35:19;;;;;;;;;;;17.20;99.90;;;;;;5136666;27;19908;-49
2023/10/10 08:37:45;;;;;;;;;;;17.20;99.90;;;;;;5136755;27;19911;-48
2023/10/10 08:40:19;;;;;;;;;;;17.20;99.90;;;;;;5136713;27;19919;-49
2023/10/10 08:42:51;;;;;;;;;;;17.20;99.90;;;;;;5136271;27;19911;-47
2023/10/10 08:45:22;;;;;;;;;;;17.20;99.90;;;;;;5136806;27;19915;-47
2023/10/10 08:47:49;;;;;;;;;;;17.10;99.90;;;;;;5136637;27;19907;-45
2023/10/10 08:50:16;;;;;;;;;;;17.20;99.90;;;;;;5136727;27;19907;-47
2023/10/10 08:52:41;;;;;;;;;;;17.10;99.90;;;;;;5136477;27;19953;-46
2023/10/10 08:55:10;;;;;;;;;;;17.10;99.90;;;;;;5136487;27;20339;-48
2023/10/10 08:57:38;;;;;;;;;;;17.20;99.90;;;;;;5136435;27;19960;-50
2023/10/10 09:00:11;;;;;;;;;;;17.20;99.90;;;;;;5136450;27;19923;-47
2023/10/10 09:02:37;;;;;;;;;;;17.30;99.90;;;;;;5136307;27;19907;-47
2023/10/10 09:05:06;;;;;;;;;;;17.30;99.90;;;;;;5136224;27;19933;-48
2023/10/10 09:07:32;;;;;;;;;;;17.40;99.90;;;;;;5136230;27;19907;-46
2023/10/10 09:10:04;;;;;;;;;;;17.50;99.90;;;;;;5136147;27;19907;-47
2023/10/10 09:12:34;;;;;;;;;;;17.60;99.90;;;;;;5136276;27;19957;-50
2023/10/10 09:15:11;;;;;;;;;;;17.70;99.90;;;;;;5136422;27;20007;-47
2023/10/10 09:17:40;;;;;;;;;;;17.80;99.90;;;;;;5136078;27;19907;-46
2023/10/10 09:20:22;;;;;;;;;;;17.90;99.90;;;;;;5135893;27;19920;-47
2023/10/10 09:23:11;;;;;;;;;;;17.90;99.90;;;;;;5136019;27;19911;-46
2023/10/10 09:25:44;;;;;;;;;;;18.00;99.90;;;;;;5135980;27;19907;-47
2023/10/10 09:28:16;;;;;;;;;;;18.00;99.90;;;;;;5135860;27;19908;-48
2023/10/10 09:30:45;;;;;;;;;;;18.00;99.90;;;;;;5135851;27;19960;-46
2023/10/10 09:35:49;;;;;;;;;;;18.00;99.90;;;;;;5135603;27;19923;-47
2023/10/10 09:38:19;;;;;;;;;;;18.10;99.90;;;;;;5135795;27;20357;-47
2023/10/10 09:40:47;;;;;;;;;;;18.10;99.90;;;;;;5135487;27;19915;-47
2023/10/10 09:43:24;;;;;;;;;;;18.30;99.90;;;;;;5135656;27;20006;-48
2023/10/10 09:46:10;;;;;;;;;;;18.30;99.90;;;;;;5135434;27;20401;-49
2023/10/10 09:51:30;;;;;;;;;;;18.50;99.90;;;;;;5135774;27;20350;-48
2023/10/10 09:54:07;;;;;;;;;;;18.50;99.90;;;;;;5134409;27;19907;-48
2023/10/10 09:56:34;;;;;;;;;;;18.60;99.90;;;;;;5135394;27;20017;-48
2023/10/10 09:59:03;;;;;;;;;;;18.60;99.90;;;;;;5135211;27;20378;-45
2023/10/10 10:01:28;;;;;;;;;;;18.70;99.90;;;;;;5135274;27;19922;-48
2023/10/10 10:03:59;;;;;;;;;;;18.70;99.90;;;;;;5135070;27;19911;-48
2023/10/10 10:06:51;;;;;;;;;;;18.80;99.90;;;;;;5135195;27;19907;-47
2023/10/10 10:09:37;;;;;;;;;;;18.80;99.90;;;;;;5135054;27;20040;-48
2023/10/10 10:12:30;;;;;;;;;;;18.90;99.90;;;;;;5134948;27;19911;-48
2023/10/10 10:15:05;;;;;;;;;;;19.00;99.90;;;;;;5134961;27;19915;-48
2023/10/10 10:17:45;;;;;;;;;;;19.00;99.90;;;;;;5134906;27;20421;-48
2023/10/10 10:20:20;;;;;;;;;;;19.10;99.90;;;;;;5134867;27;19967;-48
2023/10/10 10:22:48;;;;;;;;;;;19.10;99.90;;;;;;5134756;27;20427;-49
2023/10/10 10:25:22;;;;;;;;;;;19.10;99.90;;;;;;5134783;27;19976;-48
2023/10/10 10:27:53;;;;;;;;;;;19.10;99.90;;;;;;5134666;27;20001;-47
2023/10/10 10:32:47;;;;;;;;;;;19.10;99.90;;;;;;5134555;27;19907;-48
2023/10/10 10:35:37;;;;;;;;;;;19.10;99.90;;;;;;5134333;27;19954;-47
2023/10/10 10:38:05;;;;;;;;;;;19.20;99.90;;;;;;5134504;27;19919;-49
2023/10/10 10:41:04;;;;;;;;;;;19.30;99.90;;;;;;5134468;27;19915;-48
2023/10/10 10:43:21;;;;;;;;;;;19.30;99.90;;;;;;5133679;27;19914;-48
2023/10/10 10:45:51;;;;;;;;;;;19.40;99.90;;;;;;5133591;27;20406;-48
2023/10/10 10:48:30;;;;;;;;;;;19.40;99.90;;;;;;5134396;27;19990;-48
2023/10/10 10:51:03;;;;;;;;;;;19.50;99.90;;;;;;5134303;27;20017;-47
2023/10/10 10:53:38;;;;;;;;;;;19.60;99.90;;;;;;5134250;27;20369;-48
2023/10/10 10:59:11;;;;;;;;;;;19.70;99.90;;;;;;5134191;27;19915;-49
2023/10/10 11:01:38;;;;;;;;;;;19.80;99.90;;;;;;5133870;27;19964;-46
2023/10/10 11:04:05;;;;;;;;;;;19.90;99.90;;;;;;5134072;27;20002;-49
2023/10/10 11:06:31;;;;;;;;;;;20.00;99.90;;;;;;5133931;27;20022;-47
2023/10/10 11:09:09;;;;;;;;;;;20.10;99.90;;;;;;5133951;27;19943;-47
2023/10/10 11:14:03;;;;;;;;;;;20.20;99.90;;;;;;5133970;27;19951;-49
2023/10/10 11:16:39;;;;;;;;;;;20.30;99.90;;;;;;5133858;27;20273;-47
2023/10/10 11:19:12;;;;;;;;;;;20.30;99.90;;;;;;5133932;27;20327;-49
2023/10/10 11:21:48;;;;;;;;;;;20.40;99.90;;;;;;5133844;27;20194;-46
2023/10/10 11:24:15;;;;;;;;;;;20.30;99.90;;;;;;5133968;27;19934;-47
2023/10/10 11:26:43;;;;;;;;;;;20.30;99.90;;;;;;5133823;27;19943;-50
2023/10/10 11:29:27;;;;;;;;;;;20.30;99.90;;;;;;5133687;28;19930;-47
2023/10/10 11:32:08;;;;;;;;;;;20.30;99.90;;;;;;5133826;28;19943;-47
2023/10/10 11:34:55;;;;;;;;;;;20.40;99.90;;;;;;5133804;28;19917;-47
2023/10/10 11:37:26;;;;;;;;;;;20.50;99.90;;;;;;5133440;28;19919;-47
2023/10/10 11:40:19;;;;;;;;;;;20.60;99.90;;;;;;5133665;28;19923;-48
2023/10/10 11:42:49;;;;;;;;;;;20.60;99.90;;;;;;5133638;28;20006;-47
2023/10/10 11:45:18;;;;;;;;;;;20.70;99.90;;;;;;5133764;28;19959;-47
2023/10/10 11:47:44;;;;;;;;;;;20.60;99.90;;;;;;5133523;28;19990;-50
2023/10/10 11:50:15;;;;;;;;;;;20.60;99.90;;;;;;5133576;28;19958;-47
2023/10/10 11:52:57;;;;;;;;;;;20.70;99.90;;;;;;5133625;28;19969;-47
2023/10/10 11:55:23;;;;;;;;;;;20.80;99.90;;;;;;5133582;28;19907;-46
2023/10/10 11:57:49;;;;;;;;;;;21.00;99.90;;;;;;5133447;28;19976;-44
2023/10/10 12:00:21;;;;;;;;;;;21.20;99.90;;;;;;5133397;28;19916;-46
2023/10/10 12:02:48;;;;;;;;;;;21.40;99.90;;;;;;5133436;28;19911;-47
2023/10/10 12:08:00;;;;;;;;;;;21.60;99.90;;;;;;5133416;28;19930;-46
2023/10/10 12:10:41;;;;;;;;;;;21.70;99.90;;;;;;5133605;28;19915;-45
2023/10/10 12:13:12;;;;;;;;;;;21.60;99.90;;;;;;5133530;28;19914;-47
2023/10/10 12:15:38;;;;;;;;;;;21.60;99.90;;;;;;5133262;28;20374;-46
2023/10/10 12:18:11;;;;;;;;;;;21.60;99.90;;;;;;5135583;27;19915;-46
2023/10/10 12:20:37;;;;;;;;;;;21.60;99.90;;;;;;5137075;27;19922;-49
2023/10/10 12:23:03;;;;;;;;;;;21.70;99.90;;;;;;5137174;27;19912;-46
2023/10/10 12:25:28;;;;;;;;;;;21.80;99.90;;;;;;5137063;27;19907;-45
2023/10/10 12:28:00;;;;;;;;;;;21.90;99.90;;;;;;5137014;27;20273;-48
2023/10/10 12:30:26;;;;;;;;;;;21.90;99.90;;;;;;5137158;27;19984;-47
2023/10/10 12:32:52;;;;;;;;;;;21.90;99.90;;;;;;5136880;27;19907;-48
2023/10/10 12:35:17;;;;;;;;;;;21.80;99.90;;;;;;5136749;27;19914;-47
2023/10/10 12:37:44;;;;;;;;;;;21.70;99.90;;;;;;5136881;27;20331;-46
2023/10/10 12:40:11;;;;;;;;;;;21.80;99.90;;;;;;5136778;27;19915;-47
2023/10/10 12:42:36;;;;;;;;;;;21.70;99.90;;;;;;5137000;27;19908;-49
2023/10/10 12:45:03;;;;;;;;;;;21.70;99.90;;;;;;5136739;27;19930;-49
2023/10/10 12:47:31;;;;;;;;;;;21.80;99.90;;;;;;5136752;27;20301;-49
2023/10/10 12:50:00;;;;;;;;;;;21.90;99.90;;;;;;5136596;27;20326;-47
2023/10/10 12:52:34;;;;;;;;;;;21.80;99.90;;;;;;5136521;27;19914;-49
2023/10/10 12:55:00;;;;;;;;;;;21.80;99.90;;;;;;5136678;27;19912;-47
2023/10/10 12:57:31;;;;;;;;;;;21.60;99.90;;;;;;5136575;27;19915;-47
2023/10/10 13:00:23;;;;;;;;;;;21.40;99.90;;;;;;5136367;27;20277;-47
2023/10/10 13:02:42;;;;;;;;;;;21.30;99.90;;;;;;5136086;27;19911;-48
2023/10/10 13:05:07;;;;;;;;;;;21.10;99.90;;;;;;5136287;27;19907;-48
2023/10/10 13:07:35;;;;;;;;;;;21.10;99.90;;;;;;5136265;27;19918;-48
2023/10/10 13:10:10;;;;;;;;;;;21.00;99.90;;;;;;5136370;27;19908;-48
2023/10/10 13:12:38;;;;;;;;;;;21.00;99.90;;;;;;5136233;27;19908;-47
2023/10/10 13:15:18;;;;;;;;;;;21.00;99.90;;;;;;5136242;27;19915;-48
2023/10/10 13:20:30;;;;;;;;;;;21.00;99.90;;;;;;5136260;27;20357;-48
2023/10/10 13:22:56;;;;;;;;;;;21.10;99.90;;;;;;5135985;27;19908;-48
2023/10/10 13:25:21;;;;;;;;;;;21.00;99.90;;;;;;5136100;27;19907;-47
2023/10/10 13:27:52;;;;;;;;;;;21.00;99.90;;;;;;5135798;27;19915;-48
2023/10/10 13:30:17;;;;;;;;;;;21.00;99.90;;;;;;5134858;27;19912;-47
2023/10/10 13:32:43;;;;;;;;;;;20.90;99.90;;;;;;5135753;27;20015;-47
2023/10/10 13:35:09;;;;;;;;;;;20.90;99.90;;;;;;5135983;27;19907;-49
2023/10/10 13:37:35;;;;;;;;;;;20.80;99.90;;;;;;5135443;27;19919;-47
2023/10/10 13:40:01;;;;;;;;;;;20.80;99.90;;;;;;5135517;27;19964;-47
2023/10/10 13:42:27;;;;;;;;;;;20.80;99.90;;;;;;5135544;27;19911;-47
2023/10/10 13:45:09;;;;;;;;;;;20.80;99.90;;;;;;5135517;27;20270;-48
2023/10/10 13:47:36;;;;;;;;;;;20.70;99.90;;;;;;5135562;27;19911;-48
2023/10/10 13:50:28;;;;;;;;;;;20.70;99.90;;;;;;5135398;27;20266;-49
2023/10/10 13:52:47;;;;;;;;;;;20.70;99.90;;;;;;5135159;27;19986;-50
2023/10/10 13:55:13;;;;;;;;;;;20.70;99.90;;;;;;5135457;27;19942;-48
2023/10/10 13:57:38;;;;;;;;;;;20.70;99.90;;;;;;5135277;27;19907;-46
2023/10/10 14:00:19;;;;;;;;;;;20.80;99.90;;;;;;5135281;27;20350;-48
2023/10/10 14:02:45;;;;;;;;;;;20.80;99.90;;;;;;5135227;27;19907;-46
2023/10/10 14:05:15;;;;;;;;;;;20.80;99.90;;;;;;5135191;27;20426;-48
2023/10/10 14:07:45;;;;;;;;;;;20.80;99.90;;;;;;5134955;27;20406;-48
2023/10/10 14:10:11;;;;;;;;;;;20.80;99.90;;;;;;5135232;27;20000;-47
2023/10/10 14:12:44;;;;;;;;;;;20.90;99.90;;;;;;5135026;27;19949;-47
2023/10/10 14:15:11;;;;;;;;;;;20.90;99.90;;;;;;5135138;27;19907;-48
2023/10/10 14:17:37;;;;;;;;;;;21.00;99.90;;;;;;5134895;27;20278;-47
2023/10/10 14:20:19;;;;;;;;;;;21.00;99.90;;;;;;5134727;27;19922;-51
2023/10/10 14:22:45;;;;;;;;;;;21.00;99.90;;;;;;5134872;27;19947;-47
2023/10/10 14:25:12;;;;;;;;;;;21.00;99.90;;;;;;5134936;27;20335;-49
2023/10/10 14:27:39;;;;;;;;;;;21.00;99.90;;;;;;5134755;27;19907;-48
2023/10/10 14:30:06;;;;;;;;;;;21.10;99.90;;;;;;5134732;27;19907;-48
2023/10/10 14:32:32;;;;;;;;;;;21.10;99.90;;;;;;5134662;27;19999;-51
2023/10/10 14:34:58;;;;;;;;;;;21.20;99.90;;;;;;5134537;27;20002;-48
2023/10/10 14:37:24;;;;;;;;;;;21.30;99.90;;;;;;5134366;27;19970;-47
2023/10/10 14:39:51;;;;;;;;;;;21.30;99.90;;;;;;5134051;27;20381;-47
2023/10/10 14:42:17;;;;;;;;;;;21.20;99.90;;;;;;5134580;27;19918;-48
2023/10/10 14:44:42;;;;;;;;;;;21.20;99.90;;;;;;5134375;27;19907;-48
2023/10/10 14:47:09;;;;;;;;;;;21.10;99.90;;;;;;5134343;27;19907;-47
2023/10/10 14:49:38;;;;;;;;;;;21.10;99.90;;;;;;5134352;27;19908;-49
2023/10/10 14:52:04;;;;;;;;;;;21.00;99.90;;;;;;5134409;27;19907;-49
2023/10/10 14:54:30;;;;;;;;;;;21.00;99.90;;;;;;5134284;27;19960;-47
2023/10/10 14:56:56;;;;;;;;;;;20.90;99.90;;;;;;5134125;27;19907;-51
2023/10/10 14:59:25;;;;;;;;;;;20.90;99.90;;;;;;5134246;27;19907;-47
2023/10/10 15:01:52;;;;;;;;;;;20.80;99.90;;;;;;5133994;27;20422;-48
2023/10/10 15:04:18;;;;;;;;;;;20.80;99.90;;;;;;5134282;27;19908;-47
2023/10/10 15:06:44;;;;;;;;;;;20.70;99.90;;;;;;5134006;27;19907;-48
2023/10/10 15:09:19;;;;;;;;;;;20.70;99.90;;;;;;5134167;27;19907;-51
2023/10/10 15:11:45;;;;;;;;;;;20.70;99.90;;;;;;5134020;27;19908;-50
2023/10/10 15:14:11;;;;;;;;;;;20.70;99.90;;;;;;5133957;27;19914;-47
2023/10/10 15:16:37;;;;;;;;;;;20.70;99.90;;;;;;5133947;27;19912;-48
2023/10/10 15:19:08;;;;;;;;;;;20.60;99.90;;;;;;5133883;27;20392;-47
2023/10/10 15:21:34;;;;;;;;;;;20.50;99.90;;;;;;5133747;27;20331;-50
2023/10/10 15:24:00;;;;;;;;;;;20.40;99.90;;;;;;5133927;27;19908;-51
2023/10/10 15:26:27;;;;;;;;;;;20.30;99.90;;;;;;5133889;27;19947;-48
2023/10/10 15:28:56;;;;;;;;;;;20.30;99.90;;;;;;5133781;27;19911;-47
2023/10/10 15:31:25;;;;;;;;;;;20.20;99.90;;;;;;5133827;28;19907;-51
2023/10/10 15:33:53;;;;;;;;;;;20.20;99.90;;;;;;5133688;28;19911;-46
2023/10/10 15:36:19;;;;;;;;;;;20.10;99.90;;;;;;5133493;28;20370;-48
2023/10/10 15:38:44;;;;;;;;;;;20.10;99.90;;;;;;5133630;28;19911;-47
2023/10/10 15:41:20;;;;;;;;;;;20.00;99.90;;;;;;5133524;28;19915;-47
2023/10/10 15:43:47;;;;;;;;;;;20.00;99.90;;;;;;5133606;28;19912;-49
2023/10/10 15:46:16;;;;;;;;;;;19.90;99.90;;;;;;5133743;28;19908;-49
2023/10/10 15:48:42;;;;;;;;;;;19.90;99.90;;;;;;5133584;28;19908;-49
2023/10/10 15:51:08;;;;;;;;;;;19.90;99.90;;;;;;5133659;27;19907;-48
2023/10/10 15:53:38;;;;;;;;;;;19.90;99.90;;;;;;5136641;27;20392;-48
2023/10/10 15:56:14;;;;;;;;;;;19.90;99.90;;;;;;5137666;27;19907;-49
2023/10/10 15:58:42;;;;;;;;;;;19.80;99.90;;;;;;5137662;27;19914;-50
2023/10/10 16:01:10;;;;;;;;;;;19.80;99.90;;;;;;5137416;27;19922;-48
2023/10/10 16:03:37;;;;;;;;;;;19.80;99.90;;;;;;5137537;27;20040;-51
2023/10/10 16:06:08;;;;;;;;;;;19.70;99.90;;;;;;5137624;27;19907;-48
2023/10/10 16:08:36;;;;;;;;;;;19.60;99.90;;;;;;5137434;27;20010;-50
2023/10/10 16:11:03;;;;;;;;;;;19.60;99.90;;;;;;5137602;27;19908;-51
2023/10/10 16:13:28;;;;;;;;;;;19.50;99.90;;;;;;5137405;27;20380;-48
2023/10/10 16:15:56;;;;;;;;;;;19.40;99.90;;;;;;5137331;27;19922;-48
2023/10/10 16:18:23;;;;;;;;;;;19.30;99.90;;;;;;5137396;27;20002;-47
2023/10/10 16:20:49;;;;;;;;;;;19.30;99.90;;;;;;5137118;27;19911;-49
2023/10/10 16:23:15;;;;;;;;;;;19.20;99.90;;;;;;5137287;27;19911;-52
2023/10/10 16:25:40;;;;;;;;;;;19.20;99.90;;;;;;5137343;27;20312;-48
2023/10/10 16:28:06;;;;;;;;;;;19.10;99.90;;;;;;5137141;27;20377;-49
2023/10/10 16:30:34;;;;;;;;;;;19.10;99.90;;;;;;5137109;27;19935;-48
2023/10/10 16:32:59;;;;;;;;;;;19.00;99.90;;;;;;5137002;27;20396;-49
2023/10/10 16:35:25;;;;;;;;;;;18.90;99.90;;;;;;5136688;27;19908;-50
2023/10/10 16:37:50;;;;;;;;;;;18.90;99.90;;;;;;5136891;27;19907;-50
2023/10/10 16:40:17;;;;;;;;;;;18.90;99.90;;;;;;5136747;27;19912;-48
2023/10/10 16:42:43;;;;;;;;;;;18.80;99.90;;;;;;5136788;27;19912;-49
2023/10/10 16:45:10;;;;;;;;;;;18.80;99.90;;;;;;5136852;27;19907;-49
2023/10/10 16:47:41;;;;;;;;;;;18.80;99.90;;;;;;5136752;27;19915;-48
2023/10/10 16:50:06;;;;;;;;;;;18.80;99.90;;;;;;5136666;27;19946;-47
2023/10/10 16:52:35;;;;;;;;;;;18.70;99.90;;;;;;5136601;27;19984;-48
2023/10/10 16:55:09;;;;;;;;;;;18.80;99.90;;;;;;5136568;27;19908;-46
2023/10/10 16:57:36;;;;;;;;;;;18.70;99.90;;;;;;5136538;27;19914;-49
2023/10/10 17:00:11;;;;;;;;;;;18.70;99.90;;;;;;5136341;27;19907;-49
2023/10/10 17:02:38;;;;;;;;;;;18.70;99.90;;;;;;5136271;27;19915;-48